sensor_id;sensor_type;location;lat;lon;timestamp;P1;durP1;ratioP1;P2;durP2;ratioP2
7971;SDS011;4031;49.758;6.120;2022-08-14T00:00:41;3.90;;;2.50;;
7971;SDS011;4031;49.758;6.120;2022-08-14T00:03:07;3.50;;;3.20;;
7971;SDS011;4031;49.758;6.120;2022-08-14T00:05:42;3.20;;;2.80;;
7971;SDS011;4031;49.758;6.120;2022-08-14T00:08:08;3.40;;;3.10;;
7971;SDS011;4031;49.758;6.120;2022-08-14T00:10:34;4.27;;;3.03;;
7971;SDS011;4031;49.758;6.120;2022-08-14T00:13:00;3.40;;;3.10;;
7971;SDS011;4031;49.758;6.120;2022-08-14T00:15:30;4.23;;;2.67;;
7971;SDS011;4031;49.758;6.120;2022-08-14T00:18:01;3.27;;;2.97;;
7971;SDS011;4031;49.758;6.120;2022-08-14T00:20:28;3.93;;;3.53;;
7971;SDS011;4031;49.758;6.120;2022-08-14T00:22:59;3.87;;;3.57;;
7971;SDS011;4031;49.758;6.120;2022-08-14T00:25:25;3.13;;;2.83;;
7971;SDS011;4031;49.758;6.120;2022-08-14T00:27:52;3.40;;;3.10;;
7971;SDS011;4031;49.758;6.120;2022-08-14T00:30:19;3.47;;;3.20;;
7971;SDS011;4031;49.758;6.120;2022-08-14T00:32:45;3.93;;;3.60;;
7971;SDS011;4031;49.758;6.120;2022-08-14T00:35:11;3.10;;;2.80;;
7971;SDS011;4031;49.758;6.120;2022-08-14T00:37:43;3.57;;;3.27;;
7971;SDS011;4031;49.758;6.120;2022-08-14T00:40:11;3.60;;;3.30;;
7971;SDS011;4031;49.758;6.120;2022-08-14T00:42:40;5.00;;;3.10;;
7971;SDS011;4031;49.758;6.120;2022-08-14T00:45:06;3.50;;;3.00;;
7971;SDS011;4031;49.758;6.120;2022-08-14T00:47:35;3.50;;;3.20;;
7971;SDS011;4031;49.758;6.120;2022-08-14T00:50:02;3.23;;;2.80;;
7971;SDS011;4031;49.758;6.120;2022-08-14T00:52:31;3.27;;;2.70;;
7971;SDS011;4031;49.758;6.120;2022-08-14T00:54:58;3.50;;;3.20;;
7971;SDS011;4031;49.758;6.120;2022-08-14T00:57:25;3.27;;;2.97;;
7971;SDS011;4031;49.758;6.120;2022-08-14T00:59:53;4.50;;;3.20;;
7971;SDS011;4031;49.758;6.120;2022-08-14T01:02:21;3.30;;;3.00;;
7971;SDS011;4031;49.758;6.120;2022-08-14T01:04:52;3.70;;;3.17;;
7971;SDS011;4031;49.758;6.120;2022-08-14T01:07:22;5.90;;;3.17;;
7971;SDS011;4031;49.758;6.120;2022-08-14T01:09:52;3.87;;;3.57;;
7971;SDS011;4031;49.758;6.120;2022-08-14T01:12:22;3.90;;;2.70;;
7971;SDS011;4031;49.758;6.120;2022-08-14T01:14:49;2.83;;;2.63;;
7971;SDS011;4031;49.758;6.120;2022-08-14T01:17:19;4.30;;;3.90;;
7971;SDS011;4031;49.758;6.120;2022-08-14T01:19:48;3.70;;;3.40;;
7971;SDS011;4031;49.758;6.120;2022-08-14T01:22:33;4.00;;;3.60;;
7971;SDS011;4031;49.758;6.120;2022-08-14T01:25:00;4.13;;;3.67;;
7971;SDS011;4031;49.758;6.120;2022-08-14T01:27:26;3.60;;;3.30;;
7971;SDS011;4031;49.758;6.120;2022-08-14T01:29:53;3.60;;;3.30;;
7971;SDS011;4031;49.758;6.120;2022-08-14T01:32:21;4.03;;;3.67;;
7971;SDS011;4031;49.758;6.120;2022-08-14T01:34:51;3.70;;;3.30;;
7971;SDS011;4031;49.758;6.120;2022-08-14T01:37:20;5.63;;;3.87;;
7971;SDS011;4031;49.758;6.120;2022-08-14T01:39:49;3.30;;;3.00;;
7971;SDS011;4031;49.758;6.120;2022-08-14T01:42:16;3.63;;;3.40;;
7971;SDS011;4031;49.758;6.120;2022-08-14T01:44:43;3.90;;;3.50;;
7971;SDS011;4031;49.758;6.120;2022-08-14T01:47:16;4.40;;;4.07;;
7971;SDS011;4031;49.758;6.120;2022-08-14T01:49:42;3.30;;;3.00;;
7971;SDS011;4031;49.758;6.120;2022-08-14T01:52:09;5.70;;;3.30;;
7971;SDS011;4031;49.758;6.120;2022-08-14T01:54:36;3.60;;;3.30;;
7971;SDS011;4031;49.758;6.120;2022-08-14T01:57:03;3.60;;;3.30;;
7971;SDS011;4031;49.758;6.120;2022-08-14T01:59:34;4.00;;;3.70;;
7971;SDS011;4031;49.758;6.120;2022-08-14T02:02:02;4.43;;;4.03;;
7971;SDS011;4031;49.758;6.120;2022-08-14T02:04:36;4.03;;;3.10;;
7971;SDS011;4031;49.758;6.120;2022-08-14T02:07:04;5.17;;;4.00;;
7971;SDS011;4031;49.758;6.120;2022-08-14T02:09:33;3.60;;;3.30;;
7971;SDS011;4031;49.758;6.120;2022-08-14T02:12:04;4.40;;;4.00;;
7971;SDS011;4031;49.758;6.120;2022-08-14T02:14:31;4.03;;;3.63;;
7971;SDS011;4031;49.758;6.120;2022-08-14T02:16:57;5.10;;;3.90;;
7971;SDS011;4031;49.758;6.120;2022-08-14T02:19:25;3.73;;;3.40;;
7971;SDS011;4031;49.758;6.120;2022-08-14T02:21:54;4.00;;;3.70;;
7971;SDS011;4031;49.758;6.120;2022-08-14T02:24:23;4.50;;;4.10;;
7971;SDS011;4031;49.758;6.120;2022-08-14T02:26:54;3.47;;;3.20;;
7971;SDS011;4031;49.758;6.120;2022-08-14T02:29:23;4.67;;;3.87;;
7971;SDS011;4031;49.758;6.120;2022-08-14T02:31:52;6.47;;;4.20;;
7971;SDS011;4031;49.758;6.120;2022-08-14T02:34:23;4.13;;;3.77;;
7971;SDS011;4031;49.758;6.120;2022-08-14T02:36:56;4.03;;;3.67;;
7971;SDS011;4031;49.758;6.120;2022-08-14T02:39:29;5.07;;;4.57;;
7971;SDS011;4031;49.758;6.120;2022-08-14T02:41:56;5.33;;;4.37;;
7971;SDS011;4031;49.758;6.120;2022-08-14T02:44:23;4.23;;;3.70;;
7971;SDS011;4031;49.758;6.120;2022-08-14T02:46:51;3.80;;;3.43;;
7971;SDS011;4031;49.758;6.120;2022-08-14T02:49:21;4.43;;;4.03;;
7971;SDS011;4031;49.758;6.120;2022-08-14T02:51:51;4.70;;;4.30;;
7971;SDS011;4031;49.758;6.120;2022-08-14T02:54:18;4.47;;;4.07;;
7971;SDS011;4031;49.758;6.120;2022-08-14T02:56:47;4.37;;;3.97;;
7971;SDS011;4031;49.758;6.120;2022-08-14T02:59:18;4.10;;;3.70;;
7971;SDS011;4031;49.758;6.120;2022-08-14T03:01:44;5.10;;;4.70;;
7971;SDS011;4031;49.758;6.120;2022-08-14T03:04:11;4.23;;;3.73;;
7971;SDS011;4031;49.758;6.120;2022-08-14T03:06:38;5.77;;;4.27;;
7971;SDS011;4031;49.758;6.120;2022-08-14T03:09:07;4.40;;;4.00;;
7971;SDS011;4031;49.758;6.120;2022-08-14T03:11:35;4.67;;;4.10;;
7971;SDS011;4031;49.758;6.120;2022-08-14T03:14:01;4.03;;;3.73;;
7971;SDS011;4031;49.758;6.120;2022-08-14T03:16:28;3.93;;;3.63;;
7971;SDS011;4031;49.758;6.120;2022-08-14T03:18:59;4.43;;;4.03;;
7971;SDS011;4031;49.758;6.120;2022-08-14T03:21:27;5.07;;;4.57;;
7971;SDS011;4031;49.758;6.120;2022-08-14T03:23:57;4.77;;;3.83;;
7971;SDS011;4031;49.758;6.120;2022-08-14T03:26:39;4.70;;;4.10;;
7971;SDS011;4031;49.758;6.120;2022-08-14T03:29:08;4.47;;;4.07;;
7971;SDS011;4031;49.758;6.120;2022-08-14T03:31:36;5.33;;;3.97;;
7971;SDS011;4031;49.758;6.120;2022-08-14T03:34:04;4.43;;;3.67;;
7971;SDS011;4031;49.758;6.120;2022-08-14T03:36:34;5.30;;;4.80;;
7971;SDS011;4031;49.758;6.120;2022-08-14T03:39:03;4.20;;;3.80;;
7971;SDS011;4031;49.758;6.120;2022-08-14T03:41:31;6.13;;;4.43;;
7971;SDS011;4031;49.758;6.120;2022-08-14T03:44:00;7.00;;;4.83;;
7971;SDS011;4031;49.758;6.120;2022-08-14T03:46:30;5.87;;;4.37;;
7971;SDS011;4031;49.758;6.120;2022-08-14T03:48:59;4.43;;;4.00;;
7971;SDS011;4031;49.758;6.120;2022-08-14T03:51:28;4.97;;;4.57;;
7971;SDS011;4031;49.758;6.120;2022-08-14T03:53:58;6.37;;;4.47;;
7971;SDS011;4031;49.758;6.120;2022-08-14T03:56:32;6.13;;;4.77;;
7971;SDS011;4031;49.758;6.120;2022-08-14T03:59:01;5.43;;;4.60;;
7971;SDS011;4031;49.758;6.120;2022-08-14T04:01:31;5.80;;;4.63;;
7971;SDS011;4031;49.758;6.120;2022-08-14T04:03:59;5.50;;;5.00;;
7971;SDS011;4031;49.758;6.120;2022-08-14T04:06:29;4.40;;;4.00;;
7971;SDS011;4031;49.758;6.120;2022-08-14T04:08:55;8.43;;;4.73;;
7971;SDS011;4031;49.758;6.120;2022-08-14T04:11:20;6.80;;;4.47;;
7971;SDS011;4031;49.758;6.120;2022-08-14T04:13:46;4.73;;;4.23;;
7971;SDS011;4031;49.758;6.120;2022-08-14T04:16:18;5.87;;;4.87;;
7971;SDS011;4031;49.758;6.120;2022-08-14T04:18:48;5.10;;;4.60;;
7971;SDS011;4031;49.758;6.120;2022-08-14T04:21:17;5.90;;;5.17;;
7971;SDS011;4031;49.758;6.120;2022-08-14T04:23:48;4.50;;;4.10;;
7971;SDS011;4031;49.758;6.120;2022-08-14T04:26:16;5.83;;;4.90;;
7971;SDS011;4031;49.758;6.120;2022-08-14T04:28:44;4.93;;;4.43;;
7971;SDS011;4031;49.758;6.120;2022-08-14T04:31:10;7.37;;;4.90;;
7971;SDS011;4031;49.758;6.120;2022-08-14T04:33:37;5.10;;;4.70;;
7971;SDS011;4031;49.758;6.120;2022-08-14T04:36:03;5.37;;;4.87;;
7971;SDS011;4031;49.758;6.120;2022-08-14T04:38:29;4.93;;;4.43;;
7971;SDS011;4031;49.758;6.120;2022-08-14T04:41:13;4.70;;;4.30;;
7971;SDS011;4031;49.758;6.120;2022-08-14T04:43:58;4.30;;;3.90;;
7971;SDS011;4031;49.758;6.120;2022-08-14T04:46:23;5.47;;;4.97;;
7971;SDS011;4031;49.758;6.120;2022-08-14T04:48:52;5.47;;;4.93;;
7971;SDS011;4031;49.758;6.120;2022-08-14T04:51:19;4.93;;;4.43;;
7971;SDS011;4031;49.758;6.120;2022-08-14T04:53:51;5.40;;;4.90;;
7971;SDS011;4031;49.758;6.120;2022-08-14T04:56:20;5.30;;;4.50;;
7971;SDS011;4031;49.758;6.120;2022-08-14T04:58:52;5.33;;;4.83;;
7971;SDS011;4031;49.758;6.120;2022-08-14T05:01:28;5.50;;;5.00;;
7971;SDS011;4031;49.758;6.120;2022-08-14T05:03:54;5.57;;;5.00;;
7971;SDS011;4031;49.758;6.120;2022-08-14T05:06:21;5.40;;;4.90;;
7971;SDS011;4031;49.758;6.120;2022-08-14T05:08:47;6.53;;;5.93;;
7971;SDS011;4031;49.758;6.120;2022-08-14T05:11:13;6.60;;;5.20;;
7971;SDS011;4031;49.758;6.120;2022-08-14T05:13:39;6.20;;;5.70;;
7971;SDS011;4031;49.758;6.120;2022-08-14T05:16:07;5.70;;;5.20;;
7971;SDS011;4031;49.758;6.120;2022-08-14T05:18:36;7.70;;;4.70;;
7971;SDS011;4031;49.758;6.120;2022-08-14T05:21:03;5.73;;;4.83;;
7971;SDS011;4031;49.758;6.120;2022-08-14T05:23:32;5.60;;;4.97;;
7971;SDS011;4031;49.758;6.120;2022-08-14T05:26:01;6.23;;;5.30;;
7971;SDS011;4031;49.758;6.120;2022-08-14T05:28:30;5.00;;;4.60;;
7971;SDS011;4031;49.758;6.120;2022-08-14T05:30:59;6.17;;;4.80;;
7971;SDS011;4031;49.758;6.120;2022-08-14T05:33:30;8.67;;;5.50;;
7971;SDS011;4031;49.758;6.120;2022-08-14T05:35:59;5.23;;;4.73;;
7971;SDS011;4031;49.758;6.120;2022-08-14T05:38:28;5.63;;;5.07;;
7971;SDS011;4031;49.758;6.120;2022-08-14T05:41:04;5.53;;;4.70;;
7971;SDS011;4031;49.758;6.120;2022-08-14T05:43:32;5.50;;;5.00;;
7971;SDS011;4031;49.758;6.120;2022-08-14T05:45:59;5.20;;;4.77;;
7971;SDS011;4031;49.758;6.120;2022-08-14T05:48:26;5.43;;;4.90;;
7971;SDS011;4031;49.758;6.120;2022-08-14T05:50:53;5.50;;;4.90;;
7971;SDS011;4031;49.758;6.120;2022-08-14T05:53:23;5.83;;;5.37;;
7971;SDS011;4031;49.758;6.120;2022-08-14T05:55:51;7.67;;;5.53;;
7971;SDS011;4031;49.758;6.120;2022-08-14T05:58:17;5.97;;;5.33;;
7971;SDS011;4031;49.758;6.120;2022-08-14T06:00:44;4.77;;;4.37;;
7971;SDS011;4031;49.758;6.120;2022-08-14T06:03:14;5.10;;;4.70;;
7971;SDS011;4031;49.758;6.120;2022-08-14T06:05:43;6.10;;;5.60;;
7971;SDS011;4031;49.758;6.120;2022-08-14T06:08:30;5.70;;;5.13;;
7971;SDS011;4031;49.758;6.120;2022-08-14T06:11:00;5.10;;;4.67;;
7971;SDS011;4031;49.758;6.120;2022-08-14T06:13:31;5.90;;;5.23;;
7971;SDS011;4031;49.758;6.120;2022-08-14T06:16:01;5.50;;;4.80;;
7971;SDS011;4031;49.758;6.120;2022-08-14T06:18:27;6.50;;;5.90;;
7971;SDS011;4031;49.758;6.120;2022-08-14T06:20:53;8.47;;;5.70;;
7971;SDS011;4031;49.758;6.120;2022-08-14T06:23:19;5.63;;;5.00;;
7971;SDS011;4031;49.758;6.120;2022-08-14T06:25:44;5.60;;;5.10;;
7971;SDS011;4031;49.758;6.120;2022-08-14T06:28:16;6.20;;;5.17;;
7971;SDS011;4031;49.758;6.120;2022-08-14T06:30:47;5.03;;;4.53;;
7971;SDS011;4031;49.758;6.120;2022-08-14T06:33:14;5.80;;;5.30;;
7971;SDS011;4031;49.758;6.120;2022-08-14T06:35:41;5.30;;;4.90;;
7971;SDS011;4031;49.758;6.120;2022-08-14T06:38:07;9.80;;;4.33;;
7971;SDS011;4031;49.758;6.120;2022-08-14T06:40:37;4.80;;;4.40;;
7971;SDS011;4031;49.758;6.120;2022-08-14T06:43:05;5.00;;;4.60;;
7971;SDS011;4031;49.758;6.120;2022-08-14T06:45:34;6.47;;;4.43;;
7971;SDS011;4031;49.758;6.120;2022-08-14T06:48:02;4.93;;;4.53;;
7971;SDS011;4031;49.758;6.120;2022-08-14T06:50:29;4.00;;;3.70;;
7971;SDS011;4031;49.758;6.120;2022-08-14T06:52:55;4.60;;;4.20;;
7971;SDS011;4031;49.758;6.120;2022-08-14T06:55:22;6.30;;;5.20;;
7971;SDS011;4031;49.758;6.120;2022-08-14T06:57:48;4.57;;;4.17;;
7971;SDS011;4031;49.758;6.120;2022-08-14T07:02:46;5.13;;;4.73;;
7971;SDS011;4031;49.758;6.120;2022-08-14T07:05:31;4.80;;;4.40;;
7971;SDS011;4031;49.758;6.120;2022-08-14T07:11:06;4.90;;;4.50;;
7971;SDS011;4031;49.758;6.120;2022-08-14T07:13:32;4.83;;;4.53;;
7971;SDS011;4031;49.758;6.120;2022-08-14T07:15:58;4.63;;;3.97;;
7971;SDS011;4031;49.758;6.120;2022-08-14T07:18:27;4.83;;;4.37;;
7971;SDS011;4031;49.758;6.120;2022-08-14T07:20:55;5.17;;;4.77;;
7971;SDS011;4031;49.758;6.120;2022-08-14T07:23:23;4.93;;;4.53;;
7971;SDS011;4031;49.758;6.120;2022-08-14T07:25:51;5.30;;;4.40;;
7971;SDS011;4031;49.758;6.120;2022-08-14T07:28:21;5.00;;;4.60;;
7971;SDS011;4031;49.758;6.120;2022-08-14T07:30:54;5.60;;;5.20;;
7971;SDS011;4031;49.758;6.120;2022-08-14T07:33:24;5.50;;;5.07;;
7971;SDS011;4031;49.758;6.120;2022-08-14T07:35:53;5.53;;;5.03;;
7971;SDS011;4031;49.758;6.120;2022-08-14T07:38:21;5.27;;;4.77;;
7971;SDS011;4031;49.758;6.120;2022-08-14T07:40:48;5.30;;;4.90;;
7971;SDS011;4031;49.758;6.120;2022-08-14T07:43:15;5.30;;;4.80;;
7971;SDS011;4031;49.758;6.120;2022-08-14T07:45:41;5.37;;;4.97;;
7971;SDS011;4031;49.758;6.120;2022-08-14T07:48:07;5.17;;;4.77;;
7971;SDS011;4031;49.758;6.120;2022-08-14T07:50:34;5.40;;;5.00;;
7971;SDS011;4031;49.758;6.120;2022-08-14T07:53:00;4.77;;;4.47;;
7971;SDS011;4031;49.758;6.120;2022-08-14T07:55:26;5.43;;;4.90;;
7971;SDS011;4031;49.758;6.120;2022-08-14T07:57:53;5.20;;;4.80;;
7971;SDS011;4031;49.758;6.120;2022-08-14T08:00:21;6.03;;;5.53;;
7971;SDS011;4031;49.758;6.120;2022-08-14T08:02:48;4.57;;;4.20;;
7971;SDS011;4031;49.758;6.120;2022-08-14T08:05:19;4.70;;;4.30;;
7971;SDS011;4031;49.758;6.120;2022-08-14T08:07:48;5.13;;;4.73;;
7971;SDS011;4031;49.758;6.120;2022-08-14T08:10:16;5.10;;;4.70;;
7971;SDS011;4031;49.758;6.120;2022-08-14T08:12:57;4.60;;;4.30;;
7971;SDS011;4031;49.758;6.120;2022-08-14T08:15:38;4.93;;;4.47;;
7971;SDS011;4031;49.758;6.120;2022-08-14T08:18:12;4.67;;;4.37;;
7971;SDS011;4031;49.758;6.120;2022-08-14T08:20:41;5.20;;;4.80;;
7971;SDS011;4031;49.758;6.120;2022-08-14T08:23:12;5.03;;;4.63;;
7971;SDS011;4031;49.758;6.120;2022-08-14T08:25:41;7.03;;;6.43;;
7971;SDS011;4031;49.758;6.120;2022-08-14T08:28:10;11.93;;;4.77;;
7971;SDS011;4031;49.758;6.120;2022-08-14T08:30:42;4.60;;;4.30;;
7971;SDS011;4031;49.758;6.120;2022-08-14T08:33:25;5.40;;;4.97;;
7971;SDS011;4031;49.758;6.120;2022-08-14T08:35:56;6.70;;;6.20;;
7971;SDS011;4031;49.758;6.120;2022-08-14T08:38:25;4.93;;;4.50;;
7971;SDS011;4031;49.758;6.120;2022-08-14T08:40:55;5.23;;;4.83;;
7971;SDS011;4031;49.758;6.120;2022-08-14T08:48:43;4.90;;;4.50;;
7971;SDS011;4031;49.758;6.120;2022-08-14T08:51:28;4.10;;;3.80;;
7971;SDS011;4031;49.758;6.120;2022-08-14T08:59:03;4.70;;;4.30;;
7971;SDS011;4031;49.758;6.120;2022-08-14T09:01:51;3.73;;;3.43;;
7971;SDS011;4031;49.758;6.120;2022-08-14T09:07:03;3.60;;;3.30;;
7971;SDS011;4031;49.758;6.120;2022-08-14T09:09:30;3.60;;;3.40;;
7971;SDS011;4031;49.758;6.120;2022-08-14T09:11:58;4.40;;;4.00;;
7971;SDS011;4031;49.758;6.120;2022-08-14T09:14:26;3.80;;;3.50;;
7971;SDS011;4031;49.758;6.120;2022-08-14T09:16:58;3.93;;;3.60;;
7971;SDS011;4031;49.758;6.120;2022-08-14T09:19:24;4.33;;;3.93;;
7971;SDS011;4031;49.758;6.120;2022-08-14T09:21:51;4.00;;;3.70;;
7971;SDS011;4031;49.758;6.120;2022-08-14T09:24:18;4.40;;;4.10;;
7971;SDS011;4031;49.758;6.120;2022-08-14T09:26:45;4.43;;;4.03;;
7971;SDS011;4031;49.758;6.120;2022-08-14T09:29:11;4.70;;;4.40;;
7971;SDS011;4031;49.758;6.120;2022-08-14T09:31:39;5.23;;;4.83;;
7971;SDS011;4031;49.758;6.120;2022-08-14T09:34:12;4.40;;;4.00;;
7971;SDS011;4031;49.758;6.120;2022-08-14T09:36:48;4.97;;;4.30;;
7971;SDS011;4031;49.758;6.120;2022-08-14T09:45:38;8.27;;;7.33;;
7971;SDS011;4031;49.758;6.120;2022-08-14T09:48:15;4.67;;;3.77;;
7971;SDS011;4031;49.758;6.120;2022-08-14T09:50:47;2.80;;;2.60;;
7971;SDS011;4031;49.758;6.120;2022-08-14T09:53:17;2.53;;;2.23;;
7971;SDS011;4031;49.758;6.120;2022-08-14T09:55:59;2.80;;;2.60;;
7971;SDS011;4031;49.758;6.120;2022-08-14T09:58:42;2.80;;;2.60;;
7971;SDS011;4031;49.758;6.120;2022-08-14T10:03:48;2.57;;;2.37;;
7971;SDS011;4031;49.758;6.120;2022-08-14T10:06:24;3.20;;;3.00;;
7971;SDS011;4031;49.758;6.120;2022-08-14T10:08:56;3.03;;;2.83;;
7971;SDS011;4031;49.758;6.120;2022-08-14T10:11:30;2.93;;;2.70;;
7971;SDS011;4031;49.758;6.120;2022-08-14T10:14:12;2.87;;;2.67;;
7971;SDS011;4031;49.758;6.120;2022-08-14T10:16:48;2.30;;;2.10;;
7971;SDS011;4031;49.758;6.120;2022-08-14T10:19:21;2.53;;;2.33;;
7971;SDS011;4031;49.758;6.120;2022-08-14T10:21:59;3.23;;;2.00;;
7971;SDS011;4031;49.758;6.120;2022-08-14T10:24:31;2.67;;;2.47;;
7971;SDS011;4031;49.758;6.120;2022-08-14T10:27:23;2.40;;;2.20;;
7971;SDS011;4031;49.758;6.120;2022-08-14T10:29:50;2.50;;;2.30;;
7971;SDS011;4031;49.758;6.120;2022-08-14T10:32:19;2.70;;;2.50;;
7971;SDS011;4031;49.758;6.120;2022-08-14T10:34:47;3.40;;;2.23;;
7971;SDS011;4031;49.758;6.120;2022-08-14T10:37:15;2.57;;;2.30;;
7971;SDS011;4031;49.758;6.120;2022-08-14T10:39:43;3.23;;;2.50;;
7971;SDS011;4031;49.758;6.120;2022-08-14T10:42:21;2.97;;;2.77;;
7971;SDS011;4031;49.758;6.120;2022-08-14T10:47:45;2.97;;;2.67;;
7971;SDS011;4031;49.758;6.120;2022-08-14T10:50:13;2.67;;;2.47;;
7971;SDS011;4031;49.758;6.120;2022-08-14T10:52:40;2.50;;;2.30;;
7971;SDS011;4031;49.758;6.120;2022-08-14T10:55:08;2.90;;;2.50;;
7971;SDS011;4031;49.758;6.120;2022-08-14T10:57:53;2.90;;;2.70;;
7971;SDS011;4031;49.758;6.120;2022-08-14T11:00:24;3.00;;;2.80;;
7971;SDS011;4031;49.758;6.120;2022-08-14T11:03:05;2.63;;;2.43;;
7971;SDS011;4031;49.758;6.120;2022-08-14T11:08:11;2.90;;;2.70;;
7971;SDS011;4031;49.758;6.120;2022-08-14T11:13:15;2.83;;;2.50;;
7971;SDS011;4031;49.758;6.120;2022-08-14T11:15:51;2.87;;;2.67;;
7971;SDS011;4031;49.758;6.120;2022-08-14T11:18:20;2.97;;;2.67;;
7971;SDS011;4031;49.758;6.120;2022-08-14T11:20:50;3.13;;;2.93;;
7971;SDS011;4031;49.758;6.120;2022-08-14T11:23:19;2.80;;;2.60;;
7971;SDS011;4031;49.758;6.120;2022-08-14T11:25:54;3.20;;;3.00;;
7971;SDS011;4031;49.758;6.120;2022-08-14T11:28:24;2.87;;;2.43;;
7971;SDS011;4031;49.758;6.120;2022-08-14T11:30:52;3.00;;;2.80;;
7971;SDS011;4031;49.758;6.120;2022-08-14T11:33:26;3.10;;;2.90;;
7971;SDS011;4031;49.758;6.120;2022-08-14T11:35:56;3.43;;;3.13;;
7971;SDS011;4031;49.758;6.120;2022-08-14T11:38:25;3.37;;;2.63;;
7971;SDS011;4031;49.758;6.120;2022-08-14T11:40:53;3.30;;;3.10;;
7971;SDS011;4031;49.758;6.120;2022-08-14T11:43:22;2.70;;;2.50;;
7971;SDS011;4031;49.758;6.120;2022-08-14T11:45:49;3.33;;;3.03;;
7971;SDS011;4031;49.758;6.120;2022-08-14T11:50:44;3.40;;;2.90;;
7971;SDS011;4031;49.758;6.120;2022-08-14T11:53:19;4.23;;;3.00;;
7971;SDS011;4031;49.758;6.120;2022-08-14T11:55:56;2.80;;;2.60;;
7971;SDS011;4031;49.758;6.120;2022-08-14T11:58:48;3.23;;;2.90;;
7971;SDS011;4031;49.758;6.120;2022-08-14T12:01:17;3.07;;;2.83;;
7971;SDS011;4031;49.758;6.120;2022-08-14T12:03:55;3.37;;;3.07;;
7971;SDS011;4031;49.758;6.120;2022-08-14T12:06:45;2.90;;;2.70;;
7971;SDS011;4031;49.758;6.120;2022-08-14T12:14:52;2.83;;;2.63;;
7971;SDS011;4031;49.758;6.120;2022-08-14T12:17:29;2.43;;;2.33;;
7971;SDS011;4031;49.758;6.120;2022-08-14T12:19:58;2.80;;;2.60;;
7971;SDS011;4031;49.758;6.120;2022-08-14T12:22:30;3.20;;;3.00;;
7971;SDS011;4031;49.758;6.120;2022-08-14T12:24:57;2.93;;;2.73;;
7971;SDS011;4031;49.758;6.120;2022-08-14T12:30:40;2.43;;;2.33;;
7971;SDS011;4031;49.758;6.120;2022-08-14T12:35:51;2.80;;;2.60;;
7971;SDS011;4031;49.758;6.120;2022-08-14T12:38:42;3.03;;;2.80;;
7971;SDS011;4031;49.758;6.120;2022-08-14T12:41:11;2.87;;;2.63;;
7971;SDS011;4031;49.758;6.120;2022-08-14T12:43:47;2.53;;;2.40;;
7971;SDS011;4031;49.758;6.120;2022-08-14T12:46:24;2.63;;;2.43;;
7971;SDS011;4031;49.758;6.120;2022-08-14T12:49:15;3.40;;;2.60;;
7971;SDS011;4031;49.758;6.120;2022-08-14T12:51:42;3.10;;;2.90;;
7971;SDS011;4031;49.758;6.120;2022-08-14T12:54:20;2.43;;;2.23;;
7971;SDS011;4031;49.758;6.120;2022-08-14T12:56:47;3.13;;;2.93;;
7971;SDS011;4031;49.758;6.120;2022-08-14T12:59:13;2.87;;;2.67;;
7971;SDS011;4031;49.758;6.120;2022-08-14T13:01:40;3.03;;;2.73;;
7971;SDS011;4031;49.758;6.120;2022-08-14T13:04:13;2.93;;;2.60;;
7971;SDS011;4031;49.758;6.120;2022-08-14T13:06:41;2.70;;;2.50;;
7971;SDS011;4031;49.758;6.120;2022-08-14T13:09:09;2.70;;;2.50;;
7971;SDS011;4031;49.758;6.120;2022-08-14T13:14:43;2.80;;;2.53;;
7971;SDS011;4031;49.758;6.120;2022-08-14T13:17:04;5.77;;;2.90;;
7971;SDS011;4031;49.758;6.120;2022-08-14T13:19:31;3.93;;;2.70;;
7971;SDS011;4031;49.758;6.120;2022-08-14T13:21:57;2.47;;;2.27;;
7971;SDS011;4031;49.758;6.120;2022-08-14T13:24:23;3.27;;;2.77;;
7971;SDS011;4031;49.758;6.120;2022-08-14T13:26:53;2.63;;;2.43;;
7971;SDS011;4031;49.758;6.120;2022-08-14T13:29:23;3.20;;;3.00;;
7971;SDS011;4031;49.758;6.120;2022-08-14T13:31:52;3.07;;;2.87;;
7971;SDS011;4031;49.758;6.120;2022-08-14T13:34:20;3.10;;;2.90;;
7971;SDS011;4031;49.758;6.120;2022-08-14T13:36:49;4.23;;;2.33;;
7971;SDS011;4031;49.758;6.120;2022-08-14T13:39:17;2.87;;;2.67;;
7971;SDS011;4031;49.758;6.120;2022-08-14T13:41:46;3.70;;;2.80;;
7971;SDS011;4031;49.758;6.120;2022-08-14T13:44:16;3.33;;;3.00;;
7971;SDS011;4031;49.758;6.120;2022-08-14T13:46:46;5.40;;;2.73;;
7971;SDS011;4031;49.758;6.120;2022-08-14T13:49:13;3.97;;;3.30;;
7971;SDS011;4031;49.758;6.120;2022-08-14T13:51:40;3.70;;;3.00;;
7971;SDS011;4031;49.758;6.120;2022-08-14T13:54:15;2.97;;;2.67;;
7971;SDS011;4031;49.758;6.120;2022-08-14T13:56:45;2.90;;;2.60;;
7971;SDS011;4031;49.758;6.120;2022-08-14T13:59:11;2.87;;;2.67;;
7971;SDS011;4031;49.758;6.120;2022-08-14T14:01:38;2.67;;;2.47;;
7971;SDS011;4031;49.758;6.120;2022-08-14T14:04:16;2.80;;;2.60;;
7971;SDS011;4031;49.758;6.120;2022-08-14T14:06:47;2.60;;;2.40;;
7971;SDS011;4031;49.758;6.120;2022-08-14T14:09:15;2.50;;;2.30;;
7971;SDS011;4031;49.758;6.120;2022-08-14T14:11:52;2.97;;;2.67;;
7971;SDS011;4031;49.758;6.120;2022-08-14T14:14:19;2.70;;;2.50;;
7971;SDS011;4031;49.758;6.120;2022-08-14T14:16:48;2.47;;;2.27;;
7971;SDS011;4031;49.758;6.120;2022-08-14T14:19:17;3.10;;;2.70;;
7971;SDS011;4031;49.758;6.120;2022-08-14T14:21:44;3.07;;;2.77;;
7971;SDS011;4031;49.758;6.120;2022-08-14T14:24:13;5.53;;;2.70;;
7971;SDS011;4031;49.758;6.120;2022-08-14T14:26:40;6.30;;;2.50;;
7971;SDS011;4031;49.758;6.120;2022-08-14T14:29:13;2.27;;;2.07;;
7971;SDS011;4031;49.758;6.120;2022-08-14T14:31:42;2.83;;;2.53;;
7971;SDS011;4031;49.758;6.120;2022-08-14T14:34:13;6.17;;;2.60;;
7971;SDS011;4031;49.758;6.120;2022-08-14T14:36:42;2.33;;;2.23;;
7971;SDS011;4031;49.758;6.120;2022-08-14T14:39:09;2.30;;;2.10;;
7971;SDS011;4031;49.758;6.120;2022-08-14T14:41:38;2.57;;;2.37;;
7971;SDS011;4031;49.758;6.120;2022-08-14T14:44:09;3.13;;;2.13;;
7971;SDS011;4031;49.758;6.120;2022-08-14T14:46:37;2.73;;;2.53;;
7971;SDS011;4031;49.758;6.120;2022-08-14T14:49:06;3.17;;;2.33;;
7971;SDS011;4031;49.758;6.120;2022-08-14T14:51:38;2.60;;;2.40;;
7971;SDS011;4031;49.758;6.120;2022-08-14T14:54:05;2.53;;;2.33;;
7971;SDS011;4031;49.758;6.120;2022-08-14T14:56:32;2.70;;;2.10;;
7971;SDS011;4031;49.758;6.120;2022-08-14T14:58:59;2.30;;;2.20;;
7971;SDS011;4031;49.758;6.120;2022-08-14T15:01:25;2.90;;;2.70;;
7971;SDS011;4031;49.758;6.120;2022-08-14T15:03:51;5.97;;;2.50;;
7971;SDS011;4031;49.758;6.120;2022-08-14T15:06:22;2.17;;;1.97;;
7971;SDS011;4031;49.758;6.120;2022-08-14T15:08:49;2.53;;;2.33;;
7971;SDS011;4031;49.758;6.120;2022-08-14T15:11:16;2.63;;;2.43;;
7971;SDS011;4031;49.758;6.120;2022-08-14T15:13:43;2.37;;;2.17;;
7971;SDS011;4031;49.758;6.120;2022-08-14T15:16:10;2.20;;;2.10;;
7971;SDS011;4031;49.758;6.120;2022-08-14T15:18:36;3.33;;;2.70;;
7971;SDS011;4031;49.758;6.120;2022-08-14T15:21:02;3.30;;;2.20;;
7971;SDS011;4031;49.758;6.120;2022-08-14T15:23:31;1.80;;;1.70;;
7971;SDS011;4031;49.758;6.120;2022-08-14T15:25:58;1.90;;;1.80;;
7971;SDS011;4031;49.758;6.120;2022-08-14T15:28:24;2.10;;;1.90;;
7971;SDS011;4031;49.758;6.120;2022-08-14T15:30:51;4.73;;;1.80;;
7971;SDS011;4031;49.758;6.120;2022-08-14T15:33:18;2.30;;;2.10;;
7971;SDS011;4031;49.758;6.120;2022-08-14T15:36:05;1.80;;;1.70;;
7971;SDS011;4031;49.758;6.120;2022-08-14T15:38:32;1.93;;;1.73;;
7971;SDS011;4031;49.758;6.120;2022-08-14T15:40:58;2.00;;;1.90;;
7971;SDS011;4031;49.758;6.120;2022-08-14T15:43:26;1.90;;;1.80;;
7971;SDS011;4031;49.758;6.120;2022-08-14T15:45:52;2.03;;;1.83;;
7971;SDS011;4031;49.758;6.120;2022-08-14T15:48:20;2.00;;;1.73;;
7971;SDS011;4031;49.758;6.120;2022-08-14T15:50:46;1.60;;;1.50;;
7971;SDS011;4031;49.758;6.120;2022-08-14T15:53:12;2.53;;;1.77;;
7971;SDS011;4031;49.758;6.120;2022-08-14T15:55:38;2.00;;;1.80;;
7971;SDS011;4031;49.758;6.120;2022-08-14T15:58:05;1.70;;;1.60;;
7971;SDS011;4031;49.758;6.120;2022-08-14T16:00:31;3.90;;;1.80;;
7971;SDS011;4031;49.758;6.120;2022-08-14T16:03:18;2.27;;;1.77;;
7971;SDS011;4031;49.758;6.120;2022-08-14T16:05:47;1.90;;;1.53;;
7971;SDS011;4031;49.758;6.120;2022-08-14T16:08:13;2.00;;;1.80;;
7971;SDS011;4031;49.758;6.120;2022-08-14T16:10:39;2.00;;;1.80;;
7971;SDS011;4031;49.758;6.120;2022-08-14T16:13:06;2.00;;;1.80;;
7971;SDS011;4031;49.758;6.120;2022-08-14T16:15:32;2.43;;;2.00;;
7971;SDS011;4031;49.758;6.120;2022-08-14T16:17:59;2.50;;;1.60;;
7971;SDS011;4031;49.758;6.120;2022-08-14T16:20:27;2.13;;;1.87;;
7971;SDS011;4031;49.758;6.120;2022-08-14T16:22:59;2.40;;;2.20;;